Time;durP1;ratioP1;P1;durP2;ratioP2;P2;SDS_P1;SDS_P2;PMS_P1;PMS_P2;Temp;Humidity;BMP_temperature;BMP_pressure;BME280_temperature;BME280_humidity;BME280_pressure;Samples;Min_cycle;Max_cycle;Signal;HPM_P1;HPM_P2
2022/02/08 00:00:04;;;;;;;16.40;4.40;;;;;;;2.31;85.59;100248.01;88107;1275;87438;-58
2022/02/08 00:02:37;;;;;;;15.40;4.70;;;;;;;2.33;85.86;100249.63;88056;1275;96125;-58
2022/02/08 00:04:50;;;;;;;14.80;3.90;;;;;;;2.38;85.82;100251.14;88128;1275;78741;-76
2022/02/08 00:07:04;;;;;;;20.70;4.90;;;;;;;2.42;85.72;100253.21;88188;1275;80640;-75
2022/02/08 00:09:16;;;;;;;20.50;5.30;;;;;;;2.49;85.65;100254.02;88203;1275;98756;-58
2022/02/08 00:11:29;;;;;;;16.50;5.20;;;;;;;2.54;85.72;100262.08;88103;1275;88740;-58
2022/02/08 00:13:41;;;;;;;18.10;4.50;;;;;;;2.59;85.66;100268.54;88113;1275;93439;-58
2022/02/08 00:15:50;;;;;;;12.50;4.40;;;;;;;2.58;85.72;100271.83;88114;1275;78920;-76
2022/02/08 00:17:59;;;;;;;16.70;5.00;;;;;;;2.62;85.70;100275.52;88091;1275;82920;-75
2022/02/08 00:20:11;;;;;;;23.40;5.50;;;;;;;2.60;85.86;100276.08;88126;1275;96933;-75
2022/02/08 00:22:25;;;;;;;15.80;4.50;;;;;;;2.59;85.82;100276.85;88098;1276;88106;-76
2022/02/08 00:24:36;;;;;;;13.60;3.70;;;;;;;2.63;85.77;100284.36;88100;1276;94292;-75
2022/02/08 00:26:48;;;;;;;11.80;3.40;;;;;;;2.63;85.75;100284.17;88087;1276;81042;-75
2022/02/08 00:28:57;;;;;;;17.80;4.90;;;;;;;2.63;85.71;100286.10;88099;1276;82783;-67
2022/02/08 00:31:06;;;;;;;18.60;5.00;;;;;;;2.63;85.79;100293.20;88089;1276;99278;-58
2022/02/08 00:33:15;;;;;;;18.00;4.70;;;;;;;2.63;85.70;100291.46;88074;1276;87907;-57
2022/02/08 00:35:24;;;;;;;16.70;5.50;;;;;;;2.64;85.66;100294.38;88082;1276;95283;-75
2022/02/08 00:37:35;;;;;;;20.60;5.90;;;;;;;2.62;85.69;100297.27;88095;1276;78870;-74
2022/02/08 00:39:44;;;;;;;16.40;5.20;;;;;;;2.59;85.63;100298.55;88121;1273;82801;-74
2022/02/08 00:41:53;;;;;;;17.50;4.60;;;;;;;2.57;85.69;100300.52;88098;1276;96684;-74
2022/02/08 00:44:06;;;;;;;14.70;4.70;;;;;;;2.54;85.57;100307.07;88091;1276;89385;-57
2022/02/08 00:46:20;;;;;;;18.00;5.30;;;;;;;2.47;85.61;100305.39;88077;1276;94026;-57
2022/02/08 00:48:36;;;;;;;13.90;4.00;;;;;;;2.46;85.60;100308.84;88070;1276;78807;-58
2022/02/08 00:50:50;;;;;;;14.20;3.80;;;;;;;2.47;85.78;100312.13;88116;1276;81502;-75
2022/02/08 00:52:59;;;;;;;18.30;3.80;;;;;;;2.48;85.70;100312.40;88082;1276;98475;-75
2022/02/08 00:55:14;;;;;;;16.10;4.10;;;;;;;2.47;85.63;100315.12;88114;1276;89450;-57
2022/02/08 00:57:23;;;;;;;17.20;4.20;;;;;;;2.47;85.76;100312.33;88087;1276;92334;-58
2022/02/08 00:59:32;;;;;;;16.40;4.00;;;;;;;2.50;85.68;100309.54;88081;1276;79252;-75
2022/02/08 01:01:42;;;;;;;21.00;4.00;;;;;;;2.55;85.68;100310.86;88096;1276;82101;-75
2022/02/08 01:03:52;;;;;;;17.50;4.30;;;;;;;2.59;85.61;100312.41;88088;1276;99007;-75
2022/02/08 01:06:06;;;;;;;12.60;3.70;;;;;;;2.63;85.59;100312.26;88091;1275;88346;-57
2022/02/08 01:08:16;;;;;;;12.90;5.00;;;;;;;2.62;85.59;100313.07;88102;1276;95988;-57
2022/02/08 01:10:29;;;;;;;12.90;4.20;;;;;;;2.66;85.64;100315.37;88104;1274;77685;-57
2022/02/08 01:12:37;;;;;;;;;;;;;;;2.69;85.49;100314.13;88116;1276;81223;-58
2022/02/08 01:14:49;;;;;;;20.10;4.60;;;;;;;2.70;85.41;100317.25;88089;1276;98763;-77
2022/02/08 01:16:58;;;;;;;21.50;4.20;;;;;;;2.68;85.50;100323.45;88090;1276;87868;-76
2022/02/08 01:19:07;;;;;;;21.70;5.10;;;;;;;2.66;85.42;100329.04;88087;1276;93304;-75
2022/02/08 01:21:16;;;;;;;15.40;4.00;;;;;;;2.63;85.53;100332.49;88165;1274;77882;-76
2022/02/08 01:23:28;;;;;;;18.00;4.90;;;;;;;2.59;85.38;100336.92;88133;1275;81029;-76
2022/02/08 01:25:43;;;;;;;17.80;4.00;;;;;;;2.55;85.50;100344.95;88189;1274;97268;-76
2022/02/08 01:27:55;;;;;;;17.00;4.10;;;;;;;2.54;85.43;100351.81;88192;1274;87994;-75
2022/02/08 01:30:12;;;;;;;17.20;4.30;;;;;;;2.54;85.34;100352.40;88158;1274;95690;-75
2022/02/08 01:32:38;;;;;;;19.20;4.20;;;;;;;2.52;85.63;100354.67;88188;1274;80433;-75
2022/02/08 01:35:02;;;;;;;19.90;4.30;;;;;;;2.52;85.52;100356.84;88194;1274;82861;-76
2022/02/08 01:37:24;;;;;;;16.30;4.00;;;;;;;2.54;85.75;100354.16;88193;1274;99137;-76
2022/02/08 01:39:40;;;;;;;17.40;4.60;;;;;;;2.55;85.55;100360.86;88211;1274;89103;-75
2022/02/08 01:42:23;;;;;;;16.50;3.80;;;;;;;2.55;85.54;100363.86;88207;1274;95542;-76
2022/02/08 01:44:38;;;;;;;12.40;3.70;;;;;;;2.54;85.57;100373.13;88197;1274;81403;-57
2022/02/08 01:49:27;;;;;;;14.70;4.10;;;;;;;2.61;85.58;100379.46;88177;1274;97500;-58
2022/02/08 01:51:36;;;;;;;16.70;4.10;;;;;;;2.59;85.61;100381.73;88182;1274;87655;-59
2022/02/08 01:53:45;;;;;;;14.50;4.60;;;;;;;2.63;85.76;100383.34;88185;1274;95337;-58
2022/02/08 01:55:55;;;;;;;15.10;3.80;;;;;;;2.67;85.51;100380.53;88089;1275;81054;-59
2022/02/08 01:58:06;;;;;;;12.50;4.10;;;;;;;2.67;85.68;100384.97;88083;1275;82314;-58
2022/02/08 02:00:19;;;;;;;17.10;3.90;;;;;;;2.66;85.49;100384.30;88085;1275;99232;-59
2022/02/08 02:02:28;;;;;;;15.30;4.10;;;;;;;2.67;85.40;100392.72;88127;1275;88957;-58
2022/02/08 02:04:38;;;;;;;17.30;5.20;;;;;;;2.70;85.60;100394.05;88106;1275;95937;-58
2022/02/08 02:06:47;;;;;;;15.90;3.90;;;;;;;2.68;85.44;100392.63;88107;1275;79350;-58
2022/02/08 02:08:56;;;;;;;16.50;4.20;;;;;;;2.66;85.56;100397.46;88118;1275;83304;-59
2022/02/08 02:11:06;;;;;;;15.30;3.90;;;;;;;2.69;85.62;100392.71;88111;1275;95523;-57
2022/02/08 02:13:28;;;;;;;14.40;3.90;;;;;;;2.71;85.49;100394.71;88133;1275;88632;-57
2022/02/08 02:15:41;;;;;;;13.80;4.10;;;;;;;2.72;85.45;100400.86;88109;1275;94384;-57
2022/02/08 02:17:50;;;;;;;20.50;5.60;;;;;;;2.73;85.54;100405.88;88104;1275;79556;-57
2022/02/08 02:19:59;;;;;;;15.90;4.40;;;;;;;2.73;85.56;100408.24;88121;1275;81718;-57
2022/02/08 02:22:11;;;;;;;17.40;3.50;;;;;;;2.72;85.49;100419.90;88113;1273;99655;-58
2022/02/08 02:24:20;;;;;;;14.20;3.70;;;;;;;2.71;85.45;100421.75;88132;1275;88444;-76
2022/02/08 02:26:29;;;;;;;16.00;4.90;;;;;;;2.71;85.47;100421.52;88094;1275;94081;-77
2022/02/08 02:28:38;;;;;;;13.70;3.90;;;;;;;2.74;85.58;100428.23;88116;1275;77544;-78
2022/02/08 02:30:47;;;;;;;14.40;4.00;;;;;;;2.75;85.60;100433.11;88132;1275;82819;-56
2022/02/08 02:32:58;;;;;;;14.50;3.70;;;;;;;2.72;85.52;100436.42;88105;1275;97637;-58
2022/02/08 02:35:08;;;;;;;16.90;4.40;;;;;;;2.75;85.65;100438.29;88149;1275;87751;-76
2022/02/08 02:37:20;;;;;;;13.10;4.30;;;;;;;2.74;85.45;100440.52;88198;1275;95531;-75
2022/02/08 02:39:31;;;;;;;15.00;4.20;;;;;;;2.74;85.54;100442.25;88190;1275;81247;-76
2022/02/08 02:41:43;;;;;;;15.60;4.50;;;;;;;2.77;85.49;100440.38;88175;1275;81012;-76
2022/02/08 02:43:52;;;;;;;18.50;4.40;;;;;;;2.81;85.55;100444.25;88170;1275;99212;-76
2022/02/08 02:46:05;;;;;;;12.30;3.40;;;;;;;2.82;85.53;100445.38;88207;1275;89760;-77
2022/02/08 02:48:14;;;;;;;14.40;3.70;;;;;;;2.83;85.51;100448.89;88752;1275;92570;-78
2022/02/08 02:50:25;;;;;;;12.30;3.90;;;;;;;2.82;85.57;100448.60;88236;1275;79340;-58
2022/02/08 02:52:34;;;;;;;14.10;3.90;;;;;;;2.81;85.53;100449.60;88097;1275;81552;-58
2022/02/08 02:54:43;;;;;;;15.90;3.80;;;;;;;2.80;85.40;100452.92;88335;1275;96990;-76
2022/02/08 02:56:53;;;;;;;12.10;3.60;;;;;;;2.78;85.36;100461.48;88128;1275;88995;-77
2022/02/08 02:59:04;;;;;;;15.90;3.40;;;;;;;2.84;85.44;100466.09;88117;1275;94807;-58
2022/02/08 03:01:24;;;;;;;12.60;4.20;;;;;;;2.85;85.28;100467.90;88113;1275;79946;-57
2022/02/08 03:03:47;;;;;;;15.20;4.00;;;;;;;2.86;85.36;100473.11;88110;1275;81800;-57
2022/02/08 03:17:25;;;;;;;14.50;4.20;;;;;;;2.84;85.13;100480.67;88117;1275;99396;-57
2022/02/08 03:20:51;;;;;;;14.30;2.80;;;;;;;2.71;85.23;100507.40;88117;1275;87938;-58
2022/02/08 03:23:00;;;;;;;13.80;2.80;;;;;;;2.74;85.13;100511.77;88071;1275;93825;-58
2022/02/08 03:25:11;;;;;;;14.10;2.70;;;;;;;2.78;85.15;100520.84;88109;1275;78483;-77
2022/02/08 03:27:20;;;;;;;10.80;2.70;;;;;;;2.82;85.14;100527.80;88140;1275;80076;-76
2022/02/08 03:29:29;;;;;;;11.60;2.60;;;;;;;2.87;85.20;100533.89;88138;1275;98566;-76
2022/02/08 03:31:38;;;;;;;14.30;3.30;;;;;;;2.88;85.13;100538.43;88118;1275;87627;-77
2022/02/08 03:33:47;;;;;;;12.80;3.70;;;;;;;2.90;85.21;100541.65;88095;1275;95649;-76
2022/02/08 03:35:57;;;;;;;15.40;3.40;;;;;;;2.90;85.19;100540.71;88100;1275;76919;-76
2022/02/08 03:38:10;;;;;;;11.10;4.00;;;;;;;2.89;84.97;100539.20;88129;1275;84006;-76
2022/02/08 03:40:31;;;;;;;13.30;2.70;;;;;;;2.89;84.95;100548.98;88087;1275;99096;-57
2022/02/08 03:42:57;;;;;;;14.00;3.20;;;;;;;2.83;84.94;100553.66;88110;1275;87834;-58
2022/02/08 03:45:14;;;;;;;13.10;3.20;;;;;;;2.82;84.90;100557.16;88105;1275;94472;-76
2022/02/08 03:47:23;;;;;;;10.70;2.90;;;;;;;2.82;84.78;100561.41;88088;1275;78303;-77
2022/02/08 03:49:33;;;;;;;14.70;2.50;;;;;;;2.82;84.90;100565.30;88124;1275;79487;-58
2022/02/08 03:51:51;;;;;;;15.00;2.30;;;;;;;2.86;84.81;100570.11;88114;1275;97877;-58
2022/02/08 03:54:04;;;;;;;12.40;2.60;;;;;;;2.86;84.85;100571.71;88095;1275;88028;-76
2022/02/08 03:56:14;;;;;;;12.80;2.90;;;;;;;2.91;84.86;100574.82;87339;1275;1062078;-76
2022/02/08 03:58:26;;;;;;;10.10;2.40;;;;;;;2.97;84.86;100578.29;88116;1275;78596;-77
2022/02/08 04:00:44;;;;;;;12.00;3.60;;;;;;;2.97;84.69;100582.25;88137;1275;81031;-77
2022/02/08 04:02:56;;;;;;;11.60;2.50;;;;;;;2.93;84.58;100582.44;88101;1275;99138;-77
2022/02/08 04:05:18;;;;;;;11.30;2.50;;;;;;;2.92;84.50;100585.88;88115;1275;89391;-77
2022/02/08 04:07:34;;;;;;;11.70;2.20;;;;;;;2.85;84.32;100589.73;88110;1274;95268;-77
2022/02/08 04:09:44;;;;;;;14.20;2.80;;;;;;;2.83;84.31;100599.93;88091;1275;78897;-58
2022/02/08 04:11:58;;;;;;;9.20;2.00;;;;;;;2.77;84.31;100605.20;88099;1275;81310;-57
2022/02/08 04:14:23;;;;;;;7.90;2.30;;;;;;;2.76;84.38;100612.28;88136;1275;99004;-74
2022/02/08 04:16:37;;;;;;;8.20;1.90;;;;;;;2.77;84.21;100615.33;88112;1275;87145;-74
2022/02/08 04:18:55;;;;;;;9.60;2.10;;;;;;;2.76;84.10;100621.45;88088;1275;96092;-74
2022/02/08 04:33:54;;;;;;;8.40;1.70;;;;;;;2.87;83.48;100634.88;88137;1275;79396;-75
2022/02/08 04:36:11;;;;;;;5.70;1.60;;;;;;;2.85;83.36;100639.14;88117;1275;81511;-57
2022/02/08 04:38:34;;;;;;;11.70;3.10;;;;;;;2.83;83.21;100636.50;88131;1275;98977;-57
2022/02/08 04:41:00;;;;;;;9.70;2.20;;;;;;;2.81;83.14;100636.54;88118;1275;88207;-57
2022/02/08 04:45:36;;;;;;;6.10;1.40;;;;;;;2.73;82.99;100640.60;88095;1275;81506;-57
2022/02/08 04:47:59;;;;;;;7.10;1.40;;;;;;;2.69;82.89;100639.37;88134;1275;81377;-56
2022/02/08 04:50:11;;;;;;;7.10;1.40;;;;;;;2.64;82.85;100646.17;88110;1275;98583;-59
2022/02/08 04:52:22;;;;;;;8.50;2.10;;;;;;;2.67;83.13;100649.19;88108;1275;89483;-58
2022/02/08 04:54:40;;;;;;;7.70;1.80;;;;;;;2.69;83.05;100654.80;88135;1275;95429;-58
2022/02/08 04:57:04;;;;;;;7.50;1.90;;;;;;;2.69;83.20;100657.98;88119;1275;78080;-57
2022/02/08 04:59:25;;;;;;;8.30;2.30;;;;;;;2.74;83.13;100664.39;88110;1275;82644;-76
2022/02/08 05:01:48;;;;;;;11.40;2.30;;;;;;;2.78;83.11;100667.19;88097;1275;98821;-75
2022/02/08 05:35:57;;;;;;;10.30;4.20;;;;;;;2.27;83.27;100693.85;88111;1276;81213;-56
2022/02/08 05:40:57;;;;;;;14.90;5.70;;;;;;;2.09;83.25;100699.31;88124;1276;89288;-75
2022/02/08 05:43:16;;;;;;;13.80;5.00;;;;;;;2.06;83.53;100700.41;88084;1276;95917;-73
2022/02/08 05:45:29;;;;;;;12.00;4.00;;;;;;;2.05;83.66;100706.42;88097;1276;79526;-55
2022/02/08 05:47:43;;;;;;;13.80;4.90;;;;;;;2.04;83.67;100713.91;88095;1276;81047;-56
2022/02/08 05:50:05;;;;;;;14.30;5.60;;;;;;;2.02;83.74;100716.03;88104;1276;99381;-56
2022/02/08 05:52:44;;;;;;;15.80;5.20;;;;;;;2.01;83.93;100718.27;88106;1276;89252;-56
2022/02/08 05:54:53;;;;;;;15.60;4.80;;;;;;;1.97;83.80;100715.92;88123;1276;96182;-75
2022/02/08 05:57:02;;;;;;;14.10;4.80;;;;;;;1.93;83.86;100712.73;88106;1276;79087;-74
2022/02/08 05:59:14;;;;;;;13.90;4.50;;;;;;;1.85;83.82;100712.84;88150;1276;80365;-57
2022/02/08 06:01:23;;;;;;;13.10;3.90;;;;;;;1.80;83.87;100715.91;88086;1276;97990;-57
2022/02/08 06:03:32;;;;;;;11.60;4.60;;;;;;;1.77;83.97;100719.38;88078;1276;87614;-56
2022/02/08 06:05:41;;;;;;;15.60;4.40;;;;;;;1.78;84.05;100713.91;88153;1276;94383;-77
2022/02/08 06:07:51;;;;;;;11.20;4.10;;;;;;;1.77;84.26;100717.60;88162;1276;80139;-76
2022/02/08 06:10:04;;;;;;;13.10;3.40;;;;;;;1.81;84.36;100720.83;88135;1276;82992;-57
2022/02/08 06:12:14;;;;;;;12.60;3.60;;;;;;;1.90;84.36;100727.02;88107;1276;98365;-57
2022/02/08 06:14:26;;;;;;;14.80;5.20;;;;;;;1.95;84.33;100728.21;88125;1276;87660;-71
2022/02/08 06:16:36;;;;;;;12.10;3.30;;;;;;;1.99;84.29;100725.91;88084;1276;92915;-69
2022/02/08 06:18:49;;;;;;;13.90;4.20;;;;;;;1.99;84.42;100726.95;88100;1276;81128;-70
2022/02/08 06:20:59;;;;;;;10.80;3.40;;;;;;;2.04;84.41;100727.27;88128;1276;82728;-74
2022/02/08 06:23:08;;;;;;;11.00;3.80;;;;;;;2.05;84.36;100731.41;88120;1275;96650;-73
2022/02/08 06:25:20;;;;;;;12.00;3.20;;;;;;;2.06;84.25;100732.81;88119;1275;88930;-56
2022/02/08 06:27:30;;;;;;;15.30;3.60;;;;;;;2.09;84.38;100739.05;88116;1275;95240;-56
2022/02/08 06:29:39;;;;;;;12.90;3.20;;;;;;;2.12;84.25;100741.30;88107;1275;79115;-56
2022/02/08 06:31:48;;;;;;;13.50;3.60;;;;;;;2.21;84.36;100743.63;88124;1275;82032;-57
2022/02/08 06:33:58;;;;;;;17.70;4.70;;;;;;;2.27;84.26;100749.11;88106;1275;99552;-70
2022/02/08 06:36:07;;;;;;;12.40;3.80;;;;;;;2.33;84.32;100745.55;88146;1275;87799;-74
2022/02/08 06:38:20;;;;;;;11.70;3.70;;;;;;;2.43;84.20;100745.02;88190;1275;95834;-75
2022/02/08 06:40:31;;;;;;;16.30;4.00;;;;;;;2.50;83.94;100747.64;88159;1275;78194;-75
2022/02/08 06:42:42;;;;;;;15.60;4.90;;;;;;;2.59;83.76;100751.19;88122;1275;82206;-74
2022/02/08 06:44:51;;;;;;;11.30;4.20;;;;;;;2.65;83.84;100751.02;88139;1275;98114;-74
2022/02/08 06:47:00;;;;;;;13.20;4.10;;;;;;;2.79;83.84;100746.44;88122;1275;88761;-76
2022/02/08 06:49:09;;;;;;;11.70;4.10;;;;;;;2.88;83.68;100746.66;88196;1274;94283;-75
2022/02/08 06:51:19;;;;;;;12.30;4.40;;;;;;;3.03;83.40;100750.44;88180;1275;78168;-74
2022/02/08 06:53:28;;;;;;;13.10;4.70;;;;;;;3.07;83.40;100754.88;88088;1277;83612;-74
2022/02/08 06:55:38;;;;;;;12.20;3.30;;;;;;;3.05;83.25;100753.57;88055;1277;99050;-74
2022/02/08 06:57:52;;;;;;;14.10;4.50;;;;;;;3.03;83.19;100754.85;88078;1278;88234;-76
2022/02/08 07:00:03;;;;;;;12.20;3.60;;;;;;;3.02;82.98;100754.96;88234;1275;95159;-75
2022/02/08 07:02:15;;;;;;;13.60;4.60;;;;;;;3.02;82.97;100754.38;88174;1274;80685;-74
2022/02/08 07:04:24;;;;;;;11.70;3.30;;;;;;;3.16;83.06;100756.88;88188;1275;82280;-58
2022/02/08 07:06:33;;;;;;;11.30;3.40;;;;;;;3.67;83.22;100747.21;88189;1275;99334;-57
2022/02/08 07:08:42;;;;;;;12.80;5.20;;;;;;;3.88;82.98;100749.77;88199;1274;89007;-56
2022/02/08 07:10:50;;;;;;;12.50;3.80;;;;;;;3.86;82.58;100746.72;88198;1274;95115;-76
2022/02/08 07:13:03;;;;;;;13.50;4.20;;;;;;;3.88;82.35;100743.34;88200;1274;78156;-74
2022/02/08 07:15:15;;;;;;;10.70;3.20;;;;;;;3.81;82.32;100743.45;88225;1275;82289;-56
2022/02/08 07:17:24;;;;;;;9.00;2.60;;;;;;;3.73;82.26;100745.23;88209;1274;98343;-57
2022/02/08 07:19:33;;;;;;;11.50;2.90;;;;;;;3.67;82.08;100743.27;88111;1275;89404;-76
2022/02/08 07:21:45;;;;;;;12.10;3.20;;;;;;;3.52;81.93;100744.46;88185;1274;95141;-75
2022/02/08 07:23:57;;;;;;;10.60;3.10;;;;;;;3.35;81.87;100750.20;88190;1274;77156;-70
2022/02/08 07:26:07;;;;;;;12.40;3.30;;;;;;;3.24;82.02;100755.63;88189;1276;80541;-61
2022/02/08 07:28:15;;;;;;;10.10;3.20;;;;;;;3.22;82.00;100763.69;88131;1275;99282;-58
2022/02/08 07:30:27;;;;;;;11.10;3.00;;;;;;;3.21;81.88;100760.39;88088;1275;88798;-58
2022/02/08 07:32:37;;;;;;;14.50;3.30;;;;;;;3.20;82.04;100757.98;88097;1275;93827;-58
2022/02/08 07:34:51;;;;;;;13.80;3.20;;;;;;;3.17;82.11;100762.04;88113;1275;81977;-59
2022/02/08 07:37:10;;;;;;;7.20;2.50;;;;;;;3.15;81.95;100764.45;88098;1275;80652;-58
2022/02/08 07:39:23;;;;;;;12.60;2.90;;;;;;;3.15;82.08;100764.61;88097;1275;98079;-73
2022/02/08 07:41:40;;;;;;;9.00;2.50;;;;;;;3.19;82.00;100773.23;88099;1275;87854;-74
2022/02/08 07:43:51;;;;;;;10.40;2.40;;;;;;;3.25;82.17;100774.83;88113;1275;95685;-74
2022/02/08 07:46:01;;;;;;;8.30;2.40;;;;;;;3.29;82.29;100776.45;88100;1275;80293;-74
2022/02/08 07:48:13;;;;;;;9.30;3.00;;;;;;;3.34;82.43;100770.09;88096;1278;79397;-74
2022/02/08 07:50:24;;;;;;;10.20;2.70;;;;;;;3.43;82.42;100772.32;88109;1275;98746;-74
2022/02/08 07:52:33;;;;;;;8.90;2.50;;;;;;;3.49;82.31;100769.95;88121;1275;88211;-74
2022/02/08 07:54:43;;;;;;;11.40;2.80;;;;;;;3.57;82.35;100767.30;88101;1275;94079;-58
2022/02/08 07:56:53;;;;;;;12.70;3.20;;;;;;;3.64;82.26;100766.21;88134;1275;79122;-57
2022/02/08 07:59:04;;;;;;;17.40;3.80;;;;;;;3.72;82.17;100769.18;88123;1275;83500;-74
2022/02/08 08:01:14;;;;;;;14.20;3.90;;;;;;;3.75;82.21;100768.38;88113;1275;98506;-75
2022/02/08 08:03:23;;;;;;;15.90;4.70;;;;;;;3.78;82.18;100769.77;88116;1275;89814;-75
2022/02/08 08:05:32;;;;;;;16.30;5.00;;;;;;;3.84;82.07;100771.48;88103;1275;95646;-74
2022/02/08 08:07:41;;;;;;;16.80;5.80;;;;;;;3.90;82.21;100769.89;88110;1275;76781;-75
2022/02/08 08:09:53;;;;;;;15.40;5.10;;;;;;;4.09;82.34;100761.21;88115;1275;82307;-57
2022/02/08 08:12:03;;;;;;;17.30;5.30;;;;;;;4.89;82.67;100765.42;88090;1275;98185;-57
2022/02/08 08:14:15;;;;;;;13.20;4.80;;;;;;;6.24;82.76;100759.22;88126;1275;87449;-74
2022/02/08 08:16:30;;;;;;;15.80;5.30;;;;;;;6.88;81.67;100763.41;88086;1275;95115;-74
2022/02/08 08:18:56;;;;;;;17.00;4.90;;;;;;;6.86;81.02;100759.19;88122;1275;79042;-74
2022/02/08 08:21:04;;;;;;;16.30;4.90;;;;;;;6.49;80.45;100762.98;88085;1275;80744;-57
2022/02/08 08:23:14;;;;;;;15.70;5.10;;;;;;;6.25;80.27;100761.27;88124;1275;97521;-57
2022/02/08 08:25:23;;;;;;;14.20;4.60;;;;;;;5.90;80.29;100762.98;88095;1275;88767;-73
2022/02/08 08:27:36;;;;;;;19.20;5.30;;;;;;;5.74;80.15;100761.89;88089;1275;96195;-73
2022/02/08 08:29:46;;;;;;;17.00;4.50;;;;;;;5.63;79.95;100756.20;88142;1275;76741;-74
2022/02/08 08:31:56;;;;;;;17.40;5.10;;;;;;;5.60;80.10;100762.14;88133;1275;83719;-74
2022/02/08 08:34:05;;;;;;;13.90;4.40;;;;;;;5.63;80.14;100757.41;88099;1276;98214;-74
2022/02/08 08:36:19;;;;;;;21.10;5.50;;;;;;;5.62;79.87;100758.47;88096;1276;87800;-72
2022/02/08 08:38:33;;;;;;;14.70;5.00;;;;;;;5.54;79.94;100758.28;88100;1275;95453;-74
2022/02/08 08:40:54;;;;;;;17.00;4.10;;;;;;;5.53;80.00;100758.27;88107;1275;77490;-75
2022/02/08 08:43:25;;;;;;;22.80;5.20;;;;;;;5.51;80.06;100756.33;88120;1275;81978;-72
2022/02/08 08:50:44;;;;;;;18.90;5.00;;;;;;;5.56;79.84;100761.13;87824;1281;95744;-60
2022/02/08 08:52:53;;;;;;;18.90;5.20;;;;;;;5.63;79.94;100749.41;87900;1276;77905;-57
2022/02/08 08:55:02;;;;;;;19.30;5.80;;;;;;;5.75;79.94;100743.55;88138;1277;82947;-74
2022/02/08 08:57:15;;;;;;;15.60;4.40;;;;;;;6.05;79.78;100746.67;88125;1276;97920;-73
2022/02/08 08:59:31;;;;;;;13.60;5.00;;;;;;;6.19;79.67;100740.80;88138;1277;88087;-58
2022/02/08 09:01:40;;;;;;;16.40;4.40;;;;;;;6.20;79.23;100744.46;88120;1278;93935;-57
2022/02/08 09:03:51;;;;;;;17.40;5.80;;;;;;;6.13;79.32;100750.13;88084;1275;76899;-58
2022/02/08 09:06:04;;;;;;;19.40;5.90;;;;;;;6.06;79.36;100745.87;88151;1275;81602;-77
2022/02/08 09:08:13;;;;;;;17.10;5.20;;;;;;;6.06;79.06;100746.23;88164;1275;97601;-78
2022/02/08 09:10:28;;;;;;;22.50;5.70;;;;;;;6.04;79.12;100749.32;88143;1276;86693;-57
2022/02/08 09:13:02;;;;;;;17.80;5.40;;;;;;;5.96;78.95;100747.38;88129;1278;95006;-57
2022/02/08 09:15:30;;;;;;;18.10;5.60;;;;;;;5.87;78.54;100735.20;88136;1277;76968;-78
2022/02/08 09:20:30;;;;;;;23.80;5.40;;;;;;;5.84;78.46;100746.55;88149;1275;99239;-69
2022/02/08 09:23:01;;;;;;;18.50;5.50;;;;;;;5.77;77.95;100751.52;88606;1276;89022;-80
2022/02/08 09:25:39;;;;;;;20.40;5.30;;;;;;;5.74;78.19;100750.44;88296;1277;95646;-57
2022/02/08 09:28:09;;;;;;;23.10;5.80;;;;;;;5.72;77.68;100742.80;88091;1277;78525;-57
2022/02/08 09:30:20;;;;;;;17.60;4.90;;;;;;;5.98;78.42;100744.11;88134;1277;83683;-67
2022/02/08 09:32:40;;;;;;;21.90;5.90;;;;;;;6.22;78.33;100743.13;88130;1277;98734;-75
2022/02/08 09:34:51;;;;;;;18.20;5.00;;;;;;;6.35;78.37;100753.48;88127;1275;88875;-57
2022/02/08 09:36:59;;;;;;;20.00;5.70;;;;;;;6.35;78.32;100757.20;88113;1275;95939;-57
2022/02/08 09:39:09;;;;;;;19.50;6.10;;;;;;;6.38;78.05;100754.92;88091;1277;81236;-55
2022/02/08 09:41:20;;;;;;;20.10;5.40;;;;;;;6.36;77.97;100746.06;88136;1277;81324;-57
2022/02/08 09:43:30;;;;;;;15.40;4.90;;;;;;;6.45;78.03;100747.21;88105;1277;98149;-58
2022/02/08 09:45:45;;;;;;;22.50;6.30;;;;;;;6.52;77.92;100737.95;88135;1275;89032;-75
2022/02/08 09:48:00;;;;;;;19.10;5.30;;;;;;;6.61;77.81;100735.79;88126;1276;95882;-76
2022/02/08 09:50:17;;;;;;;20.20;5.40;;;;;;;6.58;77.36;100728.41;88104;1277;77210;-56
2022/02/08 09:52:27;;;;;;;19.00;6.40;;;;;;;6.48;77.07;100729.56;88094;1276;82166;-58
2022/02/08 09:54:36;;;;;;;22.00;5.60;;;;;;;6.48;77.20;100728.52;88144;1277;97716;-79
2022/02/08 09:56:46;;;;;;;21.60;5.90;;;;;;;6.48;77.24;100731.21;88141;1277;87881;-79
2022/02/08 09:59:04;;;;;;;17.90;5.60;;;;;;;6.44;77.11;100728.73;88115;1275;95795;-71
2022/02/08 10:01:19;;;;;;;19.60;6.30;;;;;;;6.45;77.24;100722.77;88100;1277;79136;-78
2022/02/08 10:03:28;;;;;;;23.00;6.90;;;;;;;6.49;77.11;100716.73;88097;1277;82153;-78
2022/02/08 10:05:46;;;;;;;20.30;5.70;;;;;;;6.44;77.10;100710.31;88137;1277;97181;-78
2022/02/08 10:08:06;;;;;;;19.20;5.40;;;;;;;6.31;76.53;100705.01;88131;1275;88201;-79
2022/02/08 10:10:26;;;;;;;18.50;5.40;;;;;;;6.26;76.81;100705.95;88115;1277;95223;-58
2022/02/08 10:22:47;;;;;;;22.10;5.50;;;;;;;6.26;76.83;100672.63;88023;1276;95780;-59
2022/02/08 10:25:03;;;;;;;20.40;6.10;;;;;;;6.48;76.78;100674.29;88105;1276;80202;-58
2022/02/08 10:27:29;;;;;;;17.50;6.00;;;;;;;6.64;76.77;100664.77;88089;1277;82607;-58
2022/02/08 10:29:45;;;;;;;18.60;6.10;;;;;;;6.62;76.25;100652.34;88100;1276;97327;-74
2022/02/08 10:32:07;;;;;;;16.40;5.50;;;;;;;6.76;76.56;100648.70;88115;1277;89319;-75
2022/02/08 10:39:32;;;;;;;18.50;5.30;;;;;;;6.99;76.11;100640.13;88112;1276;80102;-59
2022/02/08 10:41:51;;;;;;;18.10;5.20;;;;;;;6.95;76.16;100645.50;88146;1275;99448;-74
2022/02/08 10:44:07;;;;;;;19.60;4.90;;;;;;;6.99;75.89;100645.75;88237;1274;86420;-73
2022/02/08 10:46:26;;;;;;;19.30;6.10;;;;;;;6.95;75.75;100646.14;88216;1274;93071;-74
2022/02/08 10:48:37;;;;;;;15.60;4.70;;;;;;;6.81;75.14;100641.68;88226;1274;78764;-78
2022/02/08 10:50:54;;;;;;;20.20;5.70;;;;;;;6.63;74.86;100642.19;88275;1274;82928;-77
2022/02/08 10:53:06;;;;;;;17.60;5.30;;;;;;;6.45;75.14;100639.21;88094;1277;97033;-77
2022/02/08 10:55:28;;;;;;;15.80;4.10;;;;;;;6.33;75.22;100635.30;88087;1277;86888;-57
2022/02/08 10:57:51;;;;;;;14.90;4.60;;;;;;;6.23;75.08;100637.70;88088;1277;95348;-58
2022/02/08 11:00:04;;;;;;;18.10;5.60;;;;;;;6.16;75.26;100638.64;88101;1277;80629;-58
2022/02/08 11:02:22;;;;;;;16.80;4.20;;;;;;;6.10;75.39;100634.92;88214;1274;82521;-57
2022/02/08 11:04:48;;;;;;;14.70;4.50;;;;;;;6.09;75.42;100629.38;88208;1274;98794;-58
2022/02/08 11:07:16;;;;;;;21.50;5.20;;;;;;;6.04;75.42;100625.73;88233;1274;86858;-57
2022/02/08 11:09:40;;;;;;;24.20;6.40;;;;;;;5.93;75.43;100622.87;88219;1274;94944;-73
2022/02/08 11:12:09;;;;;;;22.90;6.20;;;;;;;5.82;75.37;100622.20;88080;1277;80713;-76
2022/02/08 11:14:33;;;;;;;12.20;4.80;;;;;;;5.75;75.48;100620.61;88099;1277;82193;-62
2022/02/08 11:17:29;;;;;;;13.00;4.30;;;;;;;5.65;75.48;100624.61;88200;1274;98116;-58
2022/02/08 11:19:55;;;;;;;15.20;4.30;;;;;;;5.61;75.80;100617.05;88064;1276;86721;-59
2022/02/08 11:22:27;;;;;;;17.70;4.20;;;;;;;5.63;75.92;100613.05;88068;1277;94499;-58
2022/02/08 11:24:52;;;;;;;14.70;4.00;;;;;;;5.62;76.12;100625.33;88203;1275;79119;-58
2022/02/08 11:27:14;;;;;;;12.50;4.00;;;;;;;5.66;76.40;100630.95;88209;1274;79692;-58
2022/02/08 11:29:28;;;;;;;18.30;4.90;;;;;;;5.71;76.33;100625.10;88213;1274;98831;-58
2022/02/08 11:31:46;;;;;;;15.80;3.90;;;;;;;5.75;76.28;100621.67;88228;1274;88888;-57
2022/02/08 11:39:03;;;;;;;18.70;5.80;;;;;;;5.75;76.13;100612.18;88196;1274;94910;-61
2022/02/08 11:39:56;;;;;;;15.70;4.50;;;;;;;5.83;75.90;100596.04;88315;1274;81239;-81
2022/02/08 11:44:52;;;;;;;16.20;4.70;;;;;;;5.80;75.97;100586.16;88247;1274;86398;-76
2022/02/08 11:47:30;;;;;;;19.40;4.40;;;;;;;5.74;76.25;100587.84;88254;1274;94016;-78
2022/02/08 11:50:02;;;;;;;15.30;4.10;;;;;;;5.77;76.21;100592.12;88246;1274;79236;-58
2022/02/08 11:52:46;;;;;;;14.60;4.60;;;;;;;5.84;76.40;100593.27;88234;1274;82123;-57
2022/02/08 11:58:07;;;;;;;15.00;4.60;;;;;;;5.86;76.30;100578.70;87854;1274;323712;-72
2022/02/08 12:00:21;;;;;;;16.30;5.10;;;;;;;5.84;75.97;100578.59;88189;1274;93525;-71
2022/02/08 12:05:16;;;;;;;16.00;5.60;;;;;;;5.88;76.03;100583.72;88159;1275;80935;-58